Time;durP1;ratioP1;P1;durP2;ratioP2;P2;SDS_P1;SDS_P2;PMS_P1;PMS_P2;Temp;Humidity;BMP_temperature;BMP_pressure;BME280_temperature;BME280_humidity;BME280_pressure;Samples;Min_cycle;Max_cycle;Signal;HPM_P1;HPM_P2
2021/06/09 00:00:47;;;;;;;9.07;8.40;;;;;;;18.02;72.40;99583.53;5018117;28;20317;-85
2021/06/09 00:03:14;;;;;;;9.53;8.70;;;;;;;18.00;72.63;99585.72;5018119;28;20248;-83
2021/06/09 00:06:24;;;;;;;9.07;8.37;;;;;;;17.99;72.41;99586.78;5035095;28;20540;-79
2021/06/09 00:08:51;;;;;;;8.93;8.13;;;;;;;17.90;72.33;99580.28;5017482;28;20226;-85
2021/06/09 00:11:17;;;;;;;9.60;8.73;;;;;;;17.93;73.02;99587.84;5001588;28;20254;-87
2021/06/09 00:13:44;;;;;;;9.53;8.80;;;;;;;17.83;73.07;99580.50;5017671;28;20276;-83
2021/06/09 00:16:15;;;;;;;9.83;8.93;;;;;;;17.83;73.43;99582.41;5000822;28;20692;-86
2021/06/09 00:18:42;;;;;;;10.07;9.10;;;;;;;17.84;73.44;99593.00;5001538;28;20256;-80
2021/06/09 00:21:09;;;;;;;9.53;8.83;;;;;;;17.79;73.43;99581.31;5017674;28;20230;-79
2021/06/09 00:23:36;;;;;;;9.90;9.10;;;;;;;17.82;73.56;99588.94;5017481;28;20233;-79
2021/06/09 00:26:04;;;;;;;9.77;8.87;;;;;;;17.76;74.03;99577.25;5000612;28;20324;-86
2021/06/09 00:28:34;;;;;;;10.37;9.57;;;;;;;17.80;73.79;99580.25;5035019;28;20281;-86
2021/06/09 00:31:03;;;;;;;10.07;9.23;;;;;;;17.77;74.11;99581.59;5017688;28;20313;-80
2021/06/09 00:33:30;;;;;;;10.27;9.33;;;;;;;17.70;74.63;99572.91;5035060;28;20305;-81
2021/06/09 00:35:58;;;;;;;9.63;8.93;;;;;;;17.71;74.92;99571.81;5017937;28;20253;-81
2021/06/09 00:38:26;;;;;;;10.33;9.63;;;;;;;17.70;75.10;99583.75;5017311;28;20629;-83
2021/06/09 00:40:53;;;;;;;10.50;9.60;;;;;;;17.72;75.08;99578.88;5001399;28;20322;-80
2021/06/09 00:43:22;;;;;;;10.53;9.70;;;;;;;17.70;75.22;99589.16;5017526;28;20229;-83
2021/06/09 00:45:55;;;;;;;10.07;9.37;;;;;;;17.68;75.25;99585.91;5001256;28;20536;-79
2021/06/09 00:48:27;;;;;;;9.77;9.07;;;;;;;17.67;75.09;99581.56;5034678;28;20226;-86
2021/06/09 00:50:55;;;;;;;9.87;9.03;;;;;;;17.61;75.22;99577.22;5001658;28;20234;-83
2021/06/09 00:53:28;;;;;;;9.93;9.03;;;;;;;17.57;75.35;99573.38;5017425;28;20314;-80
2021/06/09 00:55:57;;;;;;;10.63;9.73;;;;;;;17.61;75.58;99585.34;5017461;28;20230;-85
2021/06/09 00:58:24;;;;;;;10.10;9.10;;;;;;;17.60;75.27;99581.81;5017150;28;20246;-86
2021/06/09 01:00:51;;;;;;;9.97;9.27;;;;;;;17.61;75.26;99574.50;5019170;28;20329;-82
2021/06/09 01:03:18;;;;;;;10.90;10.00;;;;;;;17.65;75.42;99591.03;5021241;28;20709;-85
2021/06/09 01:05:45;;;;;;;10.03;9.23;;;;;;;17.59;75.24;99585.59;5004728;28;20236;-84
2021/06/09 01:08:15;;;;;;;10.30;9.50;;;;;;;17.47;75.34;99568.75;4988399;28;20223;-86
2021/06/09 01:10:44;;;;;;;10.73;9.97;;;;;;;17.59;75.49;99582.88;5038928;28;20283;-80
2021/06/09 01:13:11;;;;;;;9.97;9.17;;;;;;;17.53;76.02;99583.94;5021022;28;20637;-84
2021/06/09 01:15:38;;;;;;;10.53;9.63;;;;;;;17.54;76.54;99585.53;5004990;28;20349;-83
2021/06/09 01:18:05;;;;;;;10.10;9.20;;;;;;;17.53;75.82;99577.72;4987941;28;20564;-83
2021/06/09 01:20:33;;;;;;;10.40;9.37;;;;;;;17.50;76.10;99570.09;5020964;28;20229;-85
2021/06/09 01:23:00;;;;;;;10.70;9.80;;;;;;;17.48;76.28;99575.78;5004721;28;20237;-86
2021/06/09 01:25:27;;;;;;;11.00;10.07;;;;;;;17.48;76.21;99581.22;5001231;28;20296;-82
2021/06/09 01:27:54;;;;;;;10.60;9.60;;;;;;;17.53;76.20;99577.72;5001604;28;20226;-85
2021/06/09 01:30:21;;;;;;;10.77;9.67;;;;;;;17.48;76.58;99578.50;5000915;28;20313;-86
2021/06/09 01:32:50;;;;;;;10.70;9.80;;;;;;;17.49;76.45;99571.19;5017608;28;20310;-83
2021/06/09 01:35:17;;;;;;;10.40;9.40;;;;;;;17.47;75.46;99585.00;4985102;28;20219;-86
2021/06/09 01:37:44;;;;;;;10.80;10.00;;;;;;;17.41;75.42;99585.22;5017119;28;20236;-85
2021/06/09 01:40:14;;;;;;;10.53;9.77;;;;;;;17.39;75.83;99585.53;5000651;28;20235;-86
2021/06/09 01:42:41;;;;;;;10.47;9.57;;;;;;;17.32;75.72;99573.28;4984901;28;20593;-85
2021/06/09 01:45:12;;;;;;;10.90;9.90;;;;;;;17.20;75.51;99561.88;5000994;28;20243;-79
2021/06/09 01:47:39;;;;;;;11.37;10.33;;;;;;;17.26;75.75;99582.47;5000973;28;20543;-85
2021/06/09 01:50:09;;;;;;;10.90;10.03;;;;;;;17.14;76.04;99569.97;4984309;28;20369;-84
2021/06/09 01:52:36;;;;;;;10.77;9.87;;;;;;;17.08;76.24;99564.78;5000821;28;20306;-79
2021/06/09 01:55:04;;;;;;;10.97;9.97;;;;;;;17.09;77.03;99566.41;4984502;28;20222;-81
2021/06/09 01:57:32;;;;;;;11.00;10.17;;;;;;;17.07;76.78;99568.59;4984399;28;20302;-87
2021/06/09 02:00:00;;;;;;;11.30;10.30;;;;;;;16.97;76.99;99563.13;4997418;28;20628;-85
2021/06/09 02:02:38;;;;;;;10.17;9.33;;;;;;;16.89;77.57;99569.81;5001203;28;20230;-87
2021/06/09 02:05:07;;;;;;;11.17;10.23;;;;;;;16.88;77.29;99576.34;5016142;28;20230;-88
2021/06/09 02:07:38;;;;;;;11.17;10.07;;;;;;;16.78;77.75;99565.44;4984298;28;20638;-85
2021/06/09 02:10:08;;;;;;;11.43;10.53;;;;;;;16.80;77.85;99573.31;5016140;28;20235;-86
2021/06/09 02:12:35;;;;;;;11.63;10.67;;;;;;;16.74;78.19;99572.47;5015664;28;20241;-84
2021/06/09 02:15:03;;;;;;;11.80;10.73;;;;;;;16.69;77.98;99572.44;5017213;28;20227;-88
2021/06/09 02:17:29;;;;;;;12.00;11.10;;;;;;;16.63;78.33;99563.44;5016319;28;20308;-82
2021/06/09 02:19:56;;;;;;;11.30;10.20;;;;;;;16.57;78.22;99567.16;5016191;28;20673;-86
2021/06/09 02:22:23;;;;;;;12.33;11.30;;;;;;;16.63;77.68;99573.47;5015830;28;20231;-86
2021/06/09 02:24:50;;;;;;;11.57;10.73;;;;;;;16.60;77.53;99576.69;4999958;28;20315;-85
2021/06/09 02:27:16;;;;;;;11.60;10.60;;;;;;;16.48;77.70;99565.19;5016280;28;20259;-86
2021/06/09 02:29:43;;;;;;;11.50;10.60;;;;;;;16.39;77.59;99572.97;4999644;28;20234;-87
2021/06/09 02:32:10;;;;;;;11.90;10.90;;;;;;;16.36;78.16;99570.81;5015534;28;20255;-88
2021/06/09 02:34:37;;;;;;;11.30;10.40;;;;;;;16.35;77.94;99574.56;4999876;28;20218;-82
2021/06/09 02:37:04;;;;;;;11.50;10.40;;;;;;;16.37;78.08;99575.13;4999871;28;20293;-86
2021/06/09 02:39:31;;;;;;;12.03;10.93;;;;;;;16.34;78.55;99575.63;5015908;28;20960;-88
2021/06/09 02:41:57;;;;;;;12.20;11.20;;;;;;;16.38;78.42;99587.56;5016059;28;20293;-88
2021/06/09 02:44:24;;;;;;;11.97;10.93;;;;;;;16.37;78.65;99579.72;4998628;28;20301;-87
2021/06/09 02:46:56;;;;;;;11.37;10.50;;;;;;;16.32;78.85;99569.69;5015984;28;20245;-88
2021/06/09 02:49:25;;;;;;;11.93;10.73;;;;;;;16.39;79.27;99585.69;4999545;28;20254;-89
2021/06/09 02:52:22;;;;;;;11.00;10.10;;;;;;;16.40;79.36;99581.91;4999197;28;20709;-88
2021/06/09 02:55:05;;;;;;;11.00;10.10;;;;;;;16.34;79.46;99586.44;5015447;28;20313;-86
2021/06/09 02:57:50;;;;;;;11.27;10.10;;;;;;;16.34;79.25;99580.22;5016917;28;20635;-87
2021/06/09 03:00:20;;;;;;;11.27;10.47;;;;;;;16.32;79.22;99576.97;5015498;28;20321;-88
2021/06/09 03:02:56;;;;;;;11.87;10.97;;;;;;;16.42;78.97;99593.28;5016628;28;20253;-87
2021/06/09 03:05:48;;;;;;;11.83;10.93;;;;;;;16.35;78.51;99579.97;5015704;28;20277;-84
2021/06/09 03:08:33;;;;;;;12.57;11.57;;;;;;;16.44;78.50;99597.34;5015260;28;20586;-85
2021/06/09 03:11:09;;;;;;;11.77;10.77;;;;;;;16.44;77.88;99596.53;5015743;28;20226;-88
2021/06/09 03:14:29;;;;;;;11.60;10.60;;;;;;;16.46;77.77;99591.69;5016657;28;20231;-88
2021/06/09 03:17:20;;;;;;;11.73;10.80;;;;;;;16.50;77.64;99596.34;5015547;28;20281;-87
2021/06/09 03:20:10;;;;;;;10.93;10.03;;;;;;;16.59;77.39;99600.22;5015165;28;20234;-85
2021/06/09 03:22:57;;;;;;;11.63;10.63;;;;;;;16.64;77.49;99602.13;4998873;28;20577;-87
2021/06/09 03:25:30;;;;;;;11.10;10.00;;;;;;;16.63;77.21;99593.22;4998400;28;20234;-88
2021/06/09 03:28:20;;;;;;;10.87;9.93;;;;;;;16.66;76.53;99594.56;4999008;28;20250;-80
2021/06/09 03:30:53;;;;;;;11.03;10.03;;;;;;;16.77;76.21;99595.47;4998748;28;20231;-85
2021/06/09 03:33:21;;;;;;;11.20;10.30;;;;;;;16.77;75.42;99592.75;5015293;28;20634;-83
2021/06/09 03:36:02;;;;;;;10.70;9.83;;;;;;;16.88;75.30;99597.16;5015355;28;20253;-88
2021/06/09 03:38:35;;;;;;;10.93;10.13;;;;;;;16.92;75.20;99588.25;5015002;28;20313;-80
2021/06/09 03:41:05;;;;;;;10.63;9.73;;;;;;;17.02;75.51;99599.16;5015037;28;20281;-87
2021/06/09 03:43:35;;;;;;;11.00;10.07;;;;;;;16.99;75.00;99583.41;4998807;28;20285;-88
2021/06/09 03:46:05;;;;;;;11.20;10.20;;;;;;;17.15;74.55;99595.97;5014525;28;20258;-88
2021/06/09 03:48:33;;;;;;;10.53;9.70;;;;;;;17.21;74.11;99599.53;5015245;28;20230;-88
2021/06/09 03:51:01;;;;;;;10.87;10.07;;;;;;;17.23;73.94;99588.41;4998608;28;20234;-87
2021/06/09 03:53:28;;;;;;;10.00;9.30;;;;;;;17.30;73.92;99600.66;5014936;28;20313;-86
2021/06/09 03:55:57;;;;;;;10.40;9.70;;;;;;;17.30;73.87;99591.69;5014993;28;20258;-85
2021/06/09 03:58:27;;;;;;;11.17;10.17;;;;;;;17.33;73.37;99593.88;5014597;28;20237;-88
2021/06/09 04:00:56;;;;;;;10.57;9.70;;;;;;;17.37;73.47;99595.78;4998495;28;20309;-88
2021/06/09 04:03:23;;;;;;;11.37;10.40;;;;;;;17.45;73.53;99608.81;4998568;28;20536;-88
2021/06/09 04:05:51;;;;;;;10.50;9.70;;;;;;;17.44;73.20;99596.38;5014866;28;20273;-86
2021/06/09 04:08:19;;;;;;;10.33;9.43;;;;;;;17.46;73.56;99596.09;5014395;28;20402;-85
2021/06/09 04:10:47;;;;;;;10.90;10.07;;;;;;;17.53;73.45;99605.63;5014650;28;20226;-85
2021/06/09 04:13:15;;;;;;;10.37;9.63;;;;;;;17.54;73.03;99603.72;5014227;28;20371;-87
2021/06/09 04:15:44;;;;;;;11.10;10.20;;;;;;;17.63;73.39;99596.75;5014699;28;20258;-87
2021/06/09 04:18:10;;;;;;;10.57;9.77;;;;;;;17.71;73.33;99607.06;4981701;28;20301;-83
2021/06/09 04:20:38;;;;;;;10.40;9.50;;;;;;;17.87;73.18;99605.22;5014438;28;20227;-87
2021/06/09 04:23:05;;;;;;;11.00;10.07;;;;;;;17.89;72.89;99601.13;4998295;28;20234;-85
2021/06/09 04:25:32;;;;;;;10.73;9.73;;;;;;;18.04;72.60;99608.50;5014112;28;20235;-86
2021/06/09 04:27:59;;;;;;;11.37;10.27;;;;;;;18.00;72.64;99605.50;5014598;28;20583;-85
2021/06/09 04:30:26;;;;;;;10.90;10.07;;;;;;;18.06;72.48;99609.00;4997962;28;20234;-85
2021/06/09 04:32:58;;;;;;;10.97;10.10;;;;;;;18.14;72.56;99607.69;5015355;28;20315;-85
2021/06/09 04:35:29;;;;;;;10.80;9.90;;;;;;;18.73;70.35;99614.22;4999406;28;20285;-85
2021/06/09 04:37:57;;;;;;;10.63;9.63;;;;;;;19.04;69.39;99620.41;5018373;28;20262;-84
2021/06/09 04:40:25;;;;;;;10.37;9.47;;;;;;;19.30;68.44;99615.72;5018114;28;20309;-85
2021/06/09 04:42:53;;;;;;;11.17;10.27;;;;;;;19.45;67.64;99609.47;4985825;28;20300;-85
2021/06/09 04:45:22;;;;;;;25.07;17.43;;;;;;;19.68;66.98;99606.09;5019520;28;20230;-82
2021/06/09 04:47:49;;;;;;;15.27;13.10;;;;;;;20.03;66.16;99610.50;5019625;28;20243;-86
2021/06/09 04:50:18;;;;;;;14.33;12.93;;;;;;;20.11;66.00;99616.16;5017946;28;20631;-83
2021/06/09 04:52:45;;;;;;;13.27;11.97;;;;;;;20.33;65.50;99612.25;5018150;28;20627;-82
2021/06/09 04:55:13;;;;;;;11.50;10.50;;;;;;;20.50;64.47;99615.38;5017991;28;20322;-82
2021/06/09 04:57:40;;;;;;;12.27;11.07;;;;;;;20.73;63.84;99608.34;5018059;28;20232;-82
2021/06/09 05:00:09;;;;;;;11.63;10.47;;;;;;;20.92;62.18;99614.72;5001170;28;20606;-83
2021/06/09 05:02:37;;;;;;;10.47;9.67;;;;;;;21.15;60.89;99615.84;5017867;28;20232;-81
2021/06/09 05:05:04;;;;;;;10.83;9.83;;;;;;;21.37;60.25;99616.19;5001772;28;20314;-80
2021/06/09 05:07:31;;;;;;;10.80;9.90;;;;;;;21.54;59.68;99619.22;5017890;28;20284;-85
2021/06/09 05:09:58;;;;;;;9.53;8.73;;;;;;;21.76;59.24;99618.66;5017602;28;20316;-81
2021/06/09 05:12:34;;;;;;;10.23;9.33;;;;;;;21.95;57.28;99623.06;5017349;28;20233;-81
2021/06/09 05:15:05;;;;;;;9.90;9.10;;;;;;;21.97;56.33;99619.25;5017726;28;20720;-85
2021/06/09 05:17:45;;;;;;;10.03;9.33;;;;;;;21.95;55.63;99620.34;5017802;28;20224;-86
2021/06/09 05:20:21;;;;;;;10.07;9.17;;;;;;;22.13;55.59;99624.16;5017520;28;20236;-83
2021/06/09 05:22:56;;;;;;;10.87;9.97;;;;;;;22.09;54.57;99625.88;5017445;28;20283;-87
2021/06/09 05:25:23;;;;;;;9.90;8.90;;;;;;;22.01;55.61;99614.81;5017200;28;20319;-85
2021/06/09 05:27:51;;;;;;;10.33;9.43;;;;;;;22.24;55.29;99612.00;5001280;28;20572;-85
2021/06/09 05:30:20;;;;;;;10.77;9.63;;;;;;;22.48;55.16;99620.09;5000879;28;20659;-82
2021/06/09 05:32:47;;;;;;;10.30;9.37;;;;;;;22.57;55.01;99614.75;5017342;28;20304;-85
2021/06/09 05:35:17;;;;;;;10.60;9.35;;;;;;;22.76;53.56;99613.63;5017332;28;20506;-83
2021/06/09 05:37:45;;;;;;;10.32;9.30;;;;;;;23.02;53.32;99621.34;5017393;28;20295;-84
2021/06/09 05:40:16;;;;;;;10.20;9.23;;;;;;;23.04;52.13;99619.97;5000455;28;20222;-85
2021/06/09 05:42:44;;;;;;;10.27;9.10;;;;;;;23.23;52.20;99626.16;5001277;28;20706;-82
2021/06/09 05:45:11;;;;;;;9.68;8.98;;;;;;;23.33;51.88;99635.28;5000653;28;20338;-86
2021/06/09 05:47:40;;;;;;;10.18;9.18;;;;;;;23.48;51.67;99634.97;4983737;28;20281;-83
2021/06/09 05:50:08;;;;;;;9.32;8.43;;;;;;;23.46;49.38;99627.09;5016448;28;20258;-80
2021/06/09 05:52:34;;;;;;;8.63;7.57;;;;;;;23.60;48.42;99621.63;5018038;28;20224;-85
2021/06/09 05:55:02;;;;;;;7.65;6.95;;;;;;;23.48;47.64;99619.38;5000563;28;20277;-79
2021/06/09 05:57:29;;;;;;;8.35;7.22;;;;;;;23.61;47.57;99620.47;5000615;28;20226;-85
2021/06/09 05:59:56;;;;;;;7.60;7.00;;;;;;;23.33;47.47;99624.34;5016585;28;20238;-86
2021/06/09 06:02:27;;;;;;;7.97;7.07;;;;;;;23.62;46.20;99627.56;5016304;28;20232;-88
2021/06/09 06:04:54;;;;;;;9.10;6.90;;;;;;;23.75;45.19;99618.53;5016613;28;20223;-83
2021/06/09 06:07:21;;;;;;;8.05;7.45;;;;;;;23.73;45.41;99606.28;5000276;28;20227;-81
2021/06/09 06:09:48;;;;;;;6.78;6.10;;;;;;;23.89;45.80;99621.28;5000185;28;20313;-86
2021/06/09 06:12:15;;;;;;;7.43;6.70;;;;;;;23.88;44.73;99615.00;5000008;28;20250;-86
2021/06/09 06:14:43;;;;;;;6.70;6.10;;;;;;;24.02;43.86;99626.72;5000220;28;20227;-86
2021/06/09 06:17:10;;;;;;;9.55;6.57;;;;;;;23.99;43.58;99627.31;5016678;28;20261;-82
2021/06/09 06:19:38;;;;;;;7.10;6.50;;;;;;;24.04;44.27;99627.19;5000296;28;20258;-81
2021/06/09 06:22:09;;;;;;;6.82;6.22;;;;;;;24.33;42.47;99615.88;4999545;28;20669;-85
2021/06/09 06:24:39;;;;;;;8.25;6.68;;;;;;;24.36;43.35;99617.19;5017590;28;20288;-88
2021/06/09 06:27:08;;;;;;;7.78;6.68;;;;;;;24.34;42.93;99624.91;5003406;28;20253;-86
2021/06/09 06:29:36;;;;;;;7.10;6.50;;;;;;;24.54;41.92;99627.94;5019664;28;20248;-85
2021/06/09 06:32:08;;;;;;;6.90;6.32;;;;;;;24.64;42.24;99626.88;5019266;28;20284;-86
2021/06/09 06:34:42;;;;;;;6.90;6.30;;;;;;;24.45;42.41;99627.06;5003316;28;20226;-84
2021/06/09 06:37:10;;;;;;;6.68;6.07;;;;;;;24.59;41.18;99618.00;5003230;28;20275;-82
2021/06/09 06:39:37;;;;;;;7.30;6.05;;;;;;;24.66;41.26;99621.09;5003217;28;20262;-86
2021/06/09 06:42:04;;;;;;;7.32;6.63;;;;;;;24.54;41.62;99610.72;5019455;28;20651;-83
2021/06/09 06:44:32;;;;;;;6.93;6.32;;;;;;;24.61;40.92;99621.22;5016419;28;20230;-84
2021/06/09 06:46:59;;;;;;;7.38;5.88;;;;;;;24.52;41.27;99626.66;4985604;28;20258;-86
2021/06/09 06:49:28;;;;;;;9.35;6.18;;;;;;;24.67;40.91;99618.06;5015292;28;20231;-83
2021/06/09 06:51:56;;;;;;;6.60;6.00;;;;;;;24.78;40.99;99610.38;5002755;28;20571;-85
2021/06/09 06:54:24;;;;;;;7.90;6.35;;;;;;;24.89;41.24;99615.31;5002297;28;20233;-82
2021/06/09 06:56:54;;;;;;;6.60;6.00;;;;;;;24.99;40.84;99623.28;5018825;28;20284;-83
2021/06/09 06:59:23;;;;;;;6.80;6.30;;;;;;;24.88;40.46;99607.41;5002258;28;20249;-85
2021/06/09 07:01:49;;;;;;;6.90;6.30;;;;;;;24.92;41.30;99611.13;4998921;28;20247;-83
2021/06/09 07:04:18;;;;;;;7.47;5.82;;;;;;;25.13;40.53;99614.16;4982756;28;20580;-84
2021/06/09 07:06:46;;;;;;;6.30;5.70;;;;;;;25.27;40.54;99628.56;4983024;28;20258;-81
2021/06/09 07:09:18;;;;;;;6.45;5.80;;;;;;;25.29;39.75;99612.59;4999792;28;20703;-84
2021/06/09 07:11:47;;;;;;;7.28;6.00;;;;;;;25.41;38.45;99623.78;4999003;28;20234;-83
2021/06/09 07:14:15;;;;;;;6.28;5.78;;;;;;;25.33;38.92;99621.81;4998689;28;20239;-84
2021/06/09 07:16:44;;;;;;;6.97;6.25;;;;;;;25.39;38.81;99628.75;5000428;28;20632;-86
2021/06/09 07:19:11;;;;;;;6.75;6.15;;;;;;;25.46;38.13;99618.16;5002457;28;20317;-85
2021/06/09 07:21:39;;;;;;;7.30;6.57;;;;;;;25.28;38.65;99616.47;5002060;28;20231;-85
2021/06/09 07:24:07;;;;;;;6.13;5.57;;;;;;;25.31;38.36;99624.88;5018042;28;20273;-83
2021/06/09 07:26:41;;;;;;;6.55;5.90;;;;;;;25.40;38.30;99620.22;5014953;28;20353;-86
2021/06/09 07:29:09;;;;;;;6.38;5.78;;;;;;;25.23;38.23;99617.41;4982588;28;20235;-84
2021/06/09 07:31:38;;;;;;;6.10;5.55;;;;;;;25.33;39.73;99619.88;4998521;28;20672;-86
2021/06/09 07:34:06;;;;;;;6.18;5.57;;;;;;;25.55;38.21;99620.94;4998196;28;20576;-86
2021/06/09 07:36:48;;;;;;;7.03;5.15;;;;;;;25.85;37.51;99622.75;4998741;28;20226;-85
2021/06/09 07:39:24;;;;;;;5.68;5.18;;;;;;;25.99;35.71;99626.19;4998986;28;20227;-86
2021/06/09 07:41:51;;;;;;;7.50;5.70;;;;;;;26.06;35.42;99618.28;5014911;28;20336;-83
2021/06/09 07:44:19;;;;;;;5.90;5.40;;;;;;;26.15;35.97;99621.03;4998041;28;20283;-84
2021/06/09 07:46:46;;;;;;;7.88;5.20;;;;;;;26.25;36.21;99618.00;5014951;28;20259;-86
2021/06/09 07:49:13;;;;;;;5.63;5.13;;;;;;;26.18;35.50;99623.94;4998358;28;20321;-86
2021/06/09 07:51:45;;;;;;;4.60;4.30;;;;;;;25.94;35.11;99628.28;5006600;28;20559;-82
2021/06/09 07:54:13;;;;;;;5.82;5.22;;;;;;;26.20;35.98;99618.94;4977950;28;20321;-83
2021/06/09 07:56:43;;;;;;;5.45;5.05;;;;;;;26.27;34.92;99622.03;4961017;28;20230;-82
2021/06/09 07:59:11;;;;;;;5.20;4.50;;;;;;;26.54;34.50;99626.41;4978315;28;20636;-86
2021/06/09 08:01:41;;;;;;;5.47;4.93;;;;;;;26.52;34.74;99611.34;4977945;28;20521;-84
2021/06/09 08:04:09;;;;;;;7.47;4.97;;;;;;;26.22;33.70;99613.94;4993802;28;20239;-82
2021/06/09 08:06:36;;;;;;;5.40;4.90;;;;;;;25.90;34.74;99610.84;4978120;28;20313;-81
2021/06/09 08:09:04;;;;;;;5.32;4.50;;;;;;;26.41;35.22;99613.63;4994203;28;20236;-84
2021/06/09 08:11:31;;;;;;;6.70;4.30;;;;;;;26.55;33.47;99611.50;4993514;28;20231;-85
2021/06/09 08:13:58;;;;;;;5.18;4.70;;;;;;;26.49;33.68;99615.56;4977978;28;20228;-86
2021/06/09 08:16:27;;;;;;;5.10;4.65;;;;;;;26.45;32.71;99620.09;4993560;28;20287;-83
2021/06/09 08:18:54;;;;;;;4.55;4.20;;;;;;;26.78;33.37;99625.06;4994041;28;20541;-82
2021/06/09 08:21:25;;;;;;;4.40;4.00;;;;;;;26.73;31.91;99620.53;4977885;28;20238;-83
2021/06/09 08:23:53;;;;;;;4.30;3.90;;;;;;;26.92;31.53;99628.47;4993829;28;20227;-84
2021/06/09 08:26:23;;;;;;;4.45;4.05;;;;;;;26.65;31.65;99605.66;4977285;28;20256;-80
2021/06/09 08:28:52;;;;;;;4.25;3.78;;;;;;;26.79;31.15;99610.16;4994200;28;20242;-86
2021/06/09 08:31:28;;;;;;;4.28;3.88;;;;;;;26.86;30.42;99611.31;4994013;28;20285;-85
2021/06/09 08:33:57;;;;;;;4.97;3.70;;;;;;;26.79;29.41;99623.91;4994473;28;20231;-84
2021/06/09 08:36:24;;;;;;;4.93;3.80;;;;;;;26.96;29.64;99613.72;4994081;28;20289;-83
2021/06/09 08:38:55;;;;;;;6.10;4.00;;;;;;;26.63;31.26;99615.38;4994680;28;20227;-86
2021/06/09 08:41:25;;;;;;;5.63;3.90;;;;;;;26.82;30.91;99617.78;4978938;28;20235;-84
2021/06/09 08:43:51;;;;;;;6.32;3.97;;;;;;;26.57;30.46;99605.69;4994477;28;20227;-84
2021/06/09 08:46:18;;;;;;;5.93;4.00;;;;;;;26.85;31.17;99609.66;4994050;28;20237;-83
2021/06/09 08:48:46;;;;;;;4.53;4.15;;;;;;;27.10;30.25;99622.56;4994298;28;20311;-81
2021/06/09 08:51:15;;;;;;;4.32;3.85;;;;;;;26.72;29.49;99606.00;4998727;28;20554;-84
2021/06/09 08:53:45;;;;;;;4.75;4.13;;;;;;;26.59;31.05;99623.47;5013900;28;20230;-81
2021/06/09 08:56:12;;;;;;;4.32;3.92;;;;;;;26.98;30.37;99616.94;4997369;28;20234;-84
2021/06/09 08:58:40;;;;;;;5.75;4.10;;;;;;;26.96;30.15;99624.72;4997832;28;20309;-87
2021/06/09 09:01:08;;;;;;;4.38;4.07;;;;;;;26.98;30.06;99627.13;5014010;28;20266;-85
2021/06/09 09:03:36;;;;;;;4.57;4.18;;;;;;;26.95;29.69;99614.84;4997599;28;20241;-85
2021/06/09 09:06:03;;;;;;;5.13;4.30;;;;;;;26.98;30.48;99625.19;5013705;28;20286;-82
2021/06/09 09:08:31;;;;;;;4.97;3.85;;;;;;;27.08;29.31;99621.28;5014044;28;20725;-86
2021/06/09 09:10:58;;;;;;;6.18;4.10;;;;;;;26.90;29.85;99616.97;5013870;28;20285;-81
2021/06/09 09:13:25;;;;;;;4.10;3.80;;;;;;;26.60;31.68;99605.03;5013811;28;20239;-84
2021/06/09 09:15:52;;;;;;;6.57;3.83;;;;;;;27.02;31.59;99622.56;5013965;28;20277;-82
2021/06/09 09:18:20;;;;;;;4.70;4.03;;;;;;;27.26;29.91;99633.81;5013429;28;20524;-81
2021/06/09 09:20:48;;;;;;;5.18;4.20;;;;;;;27.49;29.57;99631.63;5013957;28;20315;-83
2021/06/09 09:23:19;;;;;;;4.75;4.10;;;;;;;27.34;30.05;99629.44;5001329;28;20289;-83
2021/06/09 09:25:47;;;;;;;6.75;4.47;;;;;;;27.31;30.68;99627.31;5000994;28;20683;-83
2021/06/09 09:28:31;;;;;;;4.60;4.20;;;;;;;27.46;30.00;99643.28;5016973;28;20581;-87
2021/06/09 09:31:08;;;;;;;4.50;4.00;;;;;;;27.25;29.84;99634.16;5001198;28;20258;-86
2021/06/09 09:33:36;;;;;;;4.18;3.75;;;;;;;27.43;29.60;99627.44;5017487;28;20242;-87
2021/06/09 09:36:23;;;;;;;4.85;4.40;;;;;;;27.53;29.57;99627.09;5016747;28;20314;-83
2021/06/09 09:38:51;;;;;;;7.75;4.63;;;;;;;27.46;32.44;99627.59;5001062;28;20226;-86
2021/06/09 09:41:20;;;;;;;5.15;4.63;;;;;;;27.64;31.61;99624.78;5001380;28;20574;-84
2021/06/09 09:43:57;;;;;;;4.80;4.40;;;;;;;27.57;30.47;99633.56;5017234;28;20257;-84
2021/06/09 09:46:33;;;;;;;6.60;4.57;;;;;;;27.61;30.32;99634.50;5016802;28;20304;-86
2021/06/09 09:49:20;;;;;;;5.03;4.50;;;;;;;27.69;30.83;99635.59;5017214;28;20235;-84
2021/06/09 09:51:51;;;;;;;5.90;4.78;;;;;;;27.64;31.27;99639.34;4991923;28;20325;-83
2021/06/09 09:54:35;;;;;;;5.07;4.78;;;;;;;27.37;31.39;99631.53;4997908;28;20285;-79
2021/06/09 09:57:06;;;;;;;5.25;4.55;;;;;;;27.47;30.82;99631.97;4997298;28;20541;-84
2021/06/09 09:59:33;;;;;;;7.82;4.78;;;;;;;27.70;31.57;99631.69;4981010;28;20231;-86
2021/06/09 10:02:02;;;;;;;4.93;4.38;;;;;;;27.76;30.83;99625.69;4998030;28;20245;-83
2021/06/09 10:04:34;;;;;;;5.25;4.82;;;;;;;27.32;32.05;99631.69;4964986;28;20256;-85
2021/06/09 10:07:03;;;;;;;5.40;4.90;;;;;;;27.22;32.48;99601.81;4981240;28;20531;-86
2021/06/09 10:09:38;;;;;;;6.72;4.45;;;;;;;27.77;32.40;99627.28;4964768;28;20249;-83
2021/06/09 10:12:13;;;;;;;7.07;4.80;;;;;;;28.21;31.53;99611.28;4980252;28;20260;-86
2021/06/09 10:14:49;;;;;;;5.00;4.60;;;;;;;28.24;30.76;99618.88;4980974;28;20230;-82
2021/06/09 10:17:21;;;;;;;4.60;4.15;;;;;;;28.64;29.39;99614.47;4981149;28;20651;-84
2021/06/09 10:19:53;;;;;;;5.00;4.40;;;;;;;29.14;29.57;99611.50;4980585;28;20224;-85
2021/06/09 10:22:22;;;;;;;4.95;4.50;;;;;;;29.25;29.43;99609.09;4980148;28;20287;-86
2021/06/09 10:24:52;;;;;;;5.28;4.88;;;;;;;28.57;30.35;99616.94;4980419;28;20235;-84
2021/06/09 10:27:32;;;;;;;4.90;4.57;;;;;;;28.51;29.69;99621.06;4997638;28;20227;-85
2021/06/09 10:29:59;;;;;;;4.65;4.25;;;;;;;28.66;29.58;99614.91;4996989;28;20231;-84
2021/06/09 10:32:27;;;;;;;4.10;3.90;;;;;;;28.61;29.11;99606.03;4995769;28;20616;-85
2021/06/09 10:34:53;;;;;;;4.03;3.72;;;;;;;29.08;28.05;99614.81;4980211;28;20598;-85
2021/06/09 10:37:20;;;;;;;4.40;3.70;;;;;;;29.52;27.07;99610.41;4980288;28;20227;-86
2021/06/09 10:39:46;;;;;;;10.25;4.10;;;;;;;29.24;27.24;99597.25;4996342;28;20258;-83
2021/06/09 10:42:16;;;;;;;4.47;4.07;;;;;;;29.07;27.46;99604.94;4995903;28;20285;-87
2021/06/09 10:44:45;;;;;;;4.47;4.07;;;;;;;29.24;27.83;99611.06;4996289;28;20234;-84
2021/06/09 10:47:32;;;;;;;4.68;3.70;;;;;;;28.96;27.86;99609.28;4980101;28;20251;-83
2021/06/09 10:50:00;;;;;;;4.55;4.18;;;;;;;28.73;27.92;99589.59;4964162;28;20262;-86
2021/06/09 10:52:27;;;;;;;4.47;3.85;;;;;;;28.33;28.50;99598.38;5010115;28;20223;-80
2021/06/09 10:54:54;;;;;;;3.97;3.50;;;;;;;28.55;26.16;99604.66;5016615;28;20296;-86
2021/06/09 10:57:22;;;;;;;4.20;3.42;;;;;;;28.91;25.63;99612.25;4999334;28;20317;-83
2021/06/09 10:59:49;;;;;;;4.30;3.50;;;;;;;29.03;26.25;99598.47;5015617;28;20234;-83
2021/06/09 11:02:18;;;;;;;3.95;3.63;;;;;;;29.22;26.13;99610.56;5016357;28;20510;-86
2021/06/09 11:04:50;;;;;;;6.72;3.70;;;;;;;29.34;26.20;99600.75;5015621;28;20261;-83
2021/06/09 11:07:34;;;;;;;3.85;3.55;;;;;;;29.25;26.87;99609.09;5015606;28;20277;-85
2021/06/09 11:10:06;;;;;;;4.10;3.80;;;;;;;29.51;26.62;99594.97;5014982;28;20325;-83
2021/06/09 11:12:48;;;;;;;4.60;4.20;;;;;;;29.80;25.93;99588.38;4983161;28;20227;-83
2021/06/09 11:15:19;;;;;;;5.57;4.35;;;;;;;29.68;26.04;99587.25;4999557;28;20559;-82
2021/06/09 11:17:57;;;;;;;6.13;4.00;;;;;;;29.60;25.93;99582.66;4998722;28;20258;-79
2021/06/09 11:20:29;;;;;;;4.32;3.80;;;;;;;29.48;26.13;99590.97;4998770;28;20261;-84
2021/06/09 11:23:11;;;;;;;4.63;3.50;;;;;;;29.83;26.45;99577.44;4999731;28;20230;-84
2021/06/09 11:25:47;;;;;;;5.00;4.10;;;;;;;29.84;25.73;99568.00;5015099;28;20238;-80
2021/06/09 11:28:33;;;;;;;4.45;4.05;;;;;;;29.82;25.97;99566.72;5014752;28;20223;-84
2021/06/09 11:31:09;;;;;;;5.75;4.50;;;;;;;29.71;26.74;99581.03;5014871;28;20258;-85
2021/06/09 11:33:38;;;;;;;4.40;4.10;;;;;;;29.15;26.82;99574.50;5014835;28;20310;-86
2021/06/09 11:36:25;;;;;;;4.03;3.67;;;;;;;29.27;26.52;99573.69;5014594;28;20549;-85
2021/06/09 11:38:57;;;;;;;4.32;4.00;;;;;;;29.28;26.76;99561.50;5002123;28;20318;-84
2021/06/09 11:41:40;;;;;;;5.20;3.97;;;;;;;29.09;27.52;99566.78;4998451;28;20250;-83
2021/06/09 11:44:23;;;;;;;5.18;4.70;;;;;;;29.08;28.46;99571.47;5014175;28;20223;-86